Time,TemperatureF,DewpointF,PressureIn,WindDirection,WindDirectionDegrees,WindSpeedMPH,WindSpeedGustMPH,Humidity,HourlyPrecipIn,Conditions,Clouds,dailyrainin,SoftwareType,DateUTC
2013-04-08 00:00:00,58.0,49.4,30.13,SSW,199,0.0,0.0,73,0.00,CLR,,0.00,WeatherDisplay:10.37,2013-04-08 04:00:00,
2013-04-08 00:05:00,57.1,48.5,30.13,SSW,199,0.0,0.0,73,0.00,CLR,,0.00,WeatherDisplay:10.37,2013-04-08 04:05:00,
2013-04-08 00:10:00,56.7,48.5,30.13,SSW,199,0.0,0.0,74,0.00,CLR,,0.00,WeatherDisplay:10.37,2013-04-08 04:10:00,
2013-04-08 00:15:00,56.2,48.7,30.12,SSW,199,0.0,0.0,76,0.00,CLR,,0.00,WeatherDisplay:10.37,2013-04-08 04:15:00,
2013-04-08 00:20:00,55.7,48.6,30.12,SSW,199,0.0,0.0,77,0.00,CLR,,0.00,WeatherDisplay:10.37,2013-04-08 04:20:00,
2013-04-08 00:25:00,55.6,48.8,30.12,SSW,199,0.0,0.0,78,0.00,CLR,,0.00,WeatherDisplay:10.37,2013-04-08 04:25:00,
2013-04-08 00:30:00,55.4,48.7,30.12,SSW,199,0.0,0.0,78,0.00,CLR,,0.00,WeatherDisplay:10.37,2013-04-08 04:30:00,
2013-04-08 00:35:00,55.3,48.9,30.12,SSW,199,0.0,0.0,79,0.00,CLR,,0.00,WeatherDisplay:10.37,2013-04-08 04:35:00,
2013-04-08 00:40:00,55.2,48.8,30.13,SSW,199,0.0,0.0,79,0.00,CLR,,0.00,WeatherDisplay:10.37,2013-04-08 04:40:00,
2013-04-08 00:45:00,55.1,49.0,30.13,SSW,199,0.0,0.0,80,0.00,CLR,,0.00,WeatherDisplay:10.37,2013-04-08 04:45:00,
2013-04-08 00:50:00,54.7,48.6,30.13,SSW,199,0.0,0.0,80,0.00,CLR,,0.00,WeatherDisplay:10.37,2013-04-08 04:50:00,
2013-04-08 00:55:00,54.5,48.8,30.13,SSW,199,0.0,0.0,81,0.00,CLR,,0.00,WeatherDisplay:10.37,2013-04-08 04:55:00,
2013-04-08 01:00:00,54.3,48.6,30.13,SSW,199,0.0,0.0,81,0.00,CLR,,0.00,WeatherDisplay:10.37,2013-04-08 05:00:00,
2013-04-08 01:05:00,54.2,48.8,30.13,SSW,199,0.0,0.0,82,0.00,CLR,,0.00,WeatherDisplay:10.37,2013-04-08 05:05:00,
2013-04-08 01:10:00,54.1,48.7,30.13,SSW,199,0.0,0.0,82,0.00,CLR,,0.00,WeatherDisplay:10.37,2013-04-08 05:10:00,
2013-04-08 01:15:00,53.6,48.9,30.14,SSW,199,0.0,0.0,84,0.00,CLR,,0.00,WeatherDisplay:10.37,2013-04-08 05:15:00,
2013-04-08 01:20:00,53.5,48.8,30.14,SSW,199,0.0,0.0,84,0.00,CLR,,0.00,WeatherDisplay:10.37,2013-04-08 05:20:00,
2013-04-08 01:26:00,53.5,49.1,30.13,SSW,199,0.0,0.0,85,0.00,CLR,,0.00,WeatherDisplay:10.37,2013-04-08 05:26:00,
2013-04-08 01:30:00,53.3,48.9,30.13,SSW,199,0.0,0.0,85,0.00,CLR,,0.00,WeatherDisplay:10.37,2013-04-08 05:30:00,
2013-04-08 01:36:00,53.3,49.2,30.14,SSW,199,0.0,0.0,86,0.00,CLR,,0.00,WeatherDisplay:10.37,2013-04-08 05:36:00,
2013-04-08 01:41:00,53.3,49.2,30.14,SSW,199,0.0,0.0,86,0.00,CLR,,0.00,WeatherDisplay:10.37,2013-04-08 05:41:00,
2013-04-08 01:46:00,53.3,49.2,30.14,SSW,199,0.0,0.0,86,0.00,CLR,,0.00,WeatherDisplay:10.37,2013-04-08 05:46:00,
2013-04-08 01:51:00,53.2,49.4,30.14,SSW,199,0.0,0.0,87,0.00,CLR,,0.00,WeatherDisplay:10.37,2013-04-08 05:51:00,
2013-04-08 01:56:00,53.3,49.5,30.14,SSW,199,0.0,0.0,87,0.00,CLR,,0.00,WeatherDisplay:10.37,2013-04-08 05:56:00,
2013-04-08 02:01:00,53.2,49.7,30.14,SSW,199,0.0,0.0,88,0.00,CLR,,0.00,WeatherDisplay:10.37,2013-04-08 06:01:00,
2013-04-08 02:06:00,53.5,51.2,30.14,SSW,199,0.0,0.0,92,0.00,CLR,,0.00,WeatherDisplay:10.37,2013-04-08 06:06:00,
2013-04-08 02:11:00,53.8,50.6,30.14,SSW,199,0.0,0.0,89,0.00,CLR,,0.00,WeatherDisplay:10.37,2013-04-08 06:11:00,
2013-04-08 02:16:00,53.8,49.7,30.14,SSW,199,0.0,0.0,86,0.00,CLR,,0.00,WeatherDisplay:10.37,2013-04-08 06:16:00,
2013-04-08 02:21:00,53.7,49.3,30.14,SSW,199,0.0,0.0,85,0.00,CLR,,0.00,WeatherDisplay:10.37,2013-04-08 06:21:00,
2013-04-08 02:26:00,53.5,49.4,30.13,SSW,199,0.0,0.0,86,0.00,CLR,,0.00,WeatherDisplay:10.37,2013-04-08 06:26:00,
2013-04-08 02:32:00,53.4,49.3,30.14,SSW,199,0.0,0.0,86,0.00,CLR,,0.00,WeatherDisplay:10.37,2013-04-08 06:32:00,
2013-04-08 02:37:00,53.3,49.5,30.13,SSW,199,0.0,0.0,87,0.00,CLR,,0.00,WeatherDisplay:10.37,2013-04-08 06:37:00,
2013-04-08 02:42:00,52.8,49.0,30.13,SSW,199,0.0,0.0,87,0.00,CLR,,0.00,WeatherDisplay:10.37,2013-04-08 06:42:00,
2013-04-08 02:47:00,52.6,49.4,30.14,SSW,199,0.0,0.0,89,0.00,CLR,,0.00,WeatherDisplay:10.37,2013-04-08 06:47:00,
2013-04-08 02:52:00,52.6,50.0,30.13,SSW,199,0.0,0.0,91,0.00,CLR,,0.00,WeatherDisplay:10.37,2013-04-08 06:52:00,
2013-04-08 02:57:00,52.7,49.8,30.13,SSW,199,0.0,0.0,90,0.00,CLR,,0.00,WeatherDisplay:10.37,2013-04-08 06:57:00,
2013-04-08 03:02:00,52.8,50.5,30.13,SSW,199,0.0,0.0,92,0.00,CLR,,0.00,WeatherDisplay:10.37,2013-04-08 07:02:00,
2013-04-08 03:07:00,53.0,51.3,30.13,SSW,199,0.0,0.0,94,0.00,CLR,,0.00,WeatherDisplay:10.37,2013-04-08 07:07:00,
2013-04-08 03:12:00,53.4,51.7,30.13,SSW,199,0.0,0.0,94,0.00,CLR,,0.00,WeatherDisplay:10.37,2013-04-08 07:12:00,
2013-04-08 03:17:00,53.6,52.2,30.12,SSW,199,0.0,0.0,95,0.00,CLR,,0.00,WeatherDisplay:10.37,2013-04-08 07:17:00,
2013-04-08 03:22:00,54.1,53.0,30.12,SSW,199,0.0,0.0,96,0.00,CLR,,0.00,WeatherDisplay:10.37,2013-04-08 07:22:00,
2013-04-08 03:27:00,54.5,53.4,30.12,SSW,199,0.0,0.0,96,0.00,CLR,,0.00,WeatherDisplay:10.37,2013-04-08 07:27:00,
2013-04-08 03:32:00,54.8,53.7,30.12,SSW,199,0.0,0.0,96,0.00,CLR,,0.00,WeatherDisplay:10.37,2013-04-08 07:32:00,
2013-04-08 03:37:00,54.9,53.8,30.12,SSW,199,0.0,0.0,96,0.00,CLR,,0.00,WeatherDisplay:10.37,2013-04-08 07:37:00,
2013-04-08 03:43:00,55.0,53.9,30.12,SSW,199,0.0,0.0,96,0.00,CLR,,0.00,WeatherDisplay:10.37,2013-04-08 07:43:00,
2013-04-08 03:48:00,55.0,53.9,30.12,SSW,199,0.0,0.0,96,0.00,CLR,,0.00,WeatherDisplay:10.37,2013-04-08 07:48:00,
2013-04-08 03:53:00,55.0,53.9,30.12,SSW,199,0.0,0.0,96,0.00,CLR,,0.00,WeatherDisplay:10.37,2013-04-08 07:53:00,
2013-04-08 03:58:00,55.3,54.2,30.12,SSW,199,0.0,0.0,96,0.00,CLR,,0.00,WeatherDisplay:10.37,2013-04-08 07:58:00,
2013-04-08 04:03:00,55.5,54.4,30.12,SSW,199,0.0,0.0,96,0.00,CLR,,0.00,WeatherDisplay:10.37,2013-04-08 08:03:00,
2013-04-08 04:08:00,55.5,54.1,30.13,SSW,199,0.0,0.0,95,0.00,CLR,,0.00,WeatherDisplay:10.37,2013-04-08 08:08:00,
2013-04-08 04:13:00,55.4,54.3,30.13,SSW,199,0.0,0.0,96,0.00,CLR,,0.00,WeatherDisplay:10.37,2013-04-08 08:13:00,
2013-04-08 04:18:00,55.3,54.2,30.13,SSW,199,0.0,0.0,96,0.00,CLR,,0.00,WeatherDisplay:10.37,2013-04-08 08:18:00,
2013-04-08 04:23:00,55.5,54.9,30.13,SSW,199,0.0,0.0,98,0.00,CLR,,0.00,WeatherDisplay:10.37,2013-04-08 08:23:00,
2013-04-08 04:28:00,56.4,56.4,30.13,SSW,199,0.0,0.0,100,0.00,CLR,,0.00,WeatherDisplay:10.37,2013-04-08 08:28:00,
2013-04-08 04:33:00,57.5,56.9,30.14,SSW,199,0.0,0.0,98,0.00,CLR,,0.00,WeatherDisplay:10.37,2013-04-08 08:33:00,
2013-04-08 04:38:00,57.7,56.6,30.13,SSW,199,0.0,0.0,96,0.00,CLR,,0.00,WeatherDisplay:10.37,2013-04-08 08:38:00,
2013-04-08 04:43:00,57.3,56.2,30.14,SSW,199,0.0,0.0,96,0.00,CLR,,0.00,WeatherDisplay:10.37,2013-04-08 08:43:00,
2013-04-08 04:48:00,57.0,55.9,30.14,SSW,199,0.0,0.0,96,0.00,CLR,,0.00,WeatherDisplay:10.37,2013-04-08 08:48:00,
2013-04-08 04:53:00,56.7,55.6,30.14,SSW,199,0.0,0.0,96,0.00,CLR,,0.00,WeatherDisplay:10.37,2013-04-08 08:53:00,
2013-04-08 04:58:00,56.5,55.7,30.13,SSW,199,0.0,0.0,97,0.00,CLR,,0.00,WeatherDisplay:10.37,2013-04-08 08:58:00,
2013-04-08 05:03:00,56.3,55.5,30.13,SSW,199,0.0,0.0,97,0.00,CLR,,0.00,WeatherDisplay:10.37,2013-04-08 09:03:00,
2013-04-08 05:08:00,56.1,55.3,30.14,SSW,199,0.0,0.0,97,0.00,CLR,,0.00,WeatherDisplay:10.37,2013-04-08 09:08:00,
2013-04-08 05:13:00,56.0,55.2,30.14,SSW,199,0.0,0.0,97,0.00,CLR,,0.00,WeatherDisplay:10.37,2013-04-08 09:13:00,
2013-04-08 05:18:00,55.8,55.0,30.14,SSW,199,0.0,0.0,97,0.00,CLR,,0.00,WeatherDisplay:10.37,2013-04-08 09:18:00,
2013-04-08 05:23:00,55.7,54.9,30.14,SSW,199,0.0,0.0,97,0.00,CLR,,0.00,WeatherDisplay:10.37,2013-04-08 09:23:00,
2013-04-08 05:28:00,55.5,54.9,30.14,SSW,199,0.0,0.0,98,0.00,CLR,,0.00,WeatherDisplay:10.37,2013-04-08 09:28:00,
2013-04-08 05:33:00,55.2,54.6,30.14,SSW,199,0.0,0.0,98,0.00,CLR,,0.00,WeatherDisplay:10.37,2013-04-08 09:33:00,
2013-04-08 05:38:00,55.1,54.5,30.14,SSW,199,0.0,0.0,98,0.00,CLR,,0.00,WeatherDisplay:10.37,2013-04-08 09:38:00,
2013-04-08 05:43:00,54.9,54.3,30.14,SSW,199,0.0,0.0,98,0.00,CLR,,0.00,WeatherDisplay:10.37,2013-04-08 09:43:00,
2013-04-08 05:48:00,54.7,54.4,30.15,SSW,199,0.0,0.0,99,0.00,CLR,,0.00,WeatherDisplay:10.37,2013-04-08 09:48:00,
2013-04-08 05:53:00,54.7,54.4,30.15,SSW,199,0.0,0.0,99,0.00,CLR,,0.00,WeatherDisplay:10.37,2013-04-08 09:53:00,
2013-04-08 05:59:00,54.5,54.2,30.15,SSW,199,0.0,0.0,99,0.00,CLR,,0.00,WeatherDisplay:10.37,2013-04-08 09:59:00,
2013-04-08 06:04:00,54.4,54.1,30.16,SSW,199,0.0,0.0,99,0.00,CLR,,0.00,WeatherDisplay:10.37,2013-04-08 10:04:00,
2013-04-08 06:10:00,54.4,54.1,30.16,SSW,199,0.0,0.0,99,0.00,CLR,,0.00,WeatherDisplay:10.37,2013-04-08 10:10:00,
2013-04-08 06:15:00,54.2,53.9,30.16,SSW,199,0.0,0.0,99,0.00,CLR,,0.00,WeatherDisplay:10.37,2013-04-08 10:15:00,
2013-04-08 06:20:00,54.2,53.9,30.16,SSW,199,0.0,0.0,99,0.00,CLR,,0.00,WeatherDisplay:10.37,2013-04-08 10:20:00,
2013-04-08 06:25:00,54.0,53.7,30.16,SSW,199,0.0,0.0,99,0.00,CLR,,0.00,WeatherDisplay:10.37,2013-04-08 10:25:00,
2013-04-08 06:30:00,54.1,53.8,30.16,SSW,199,0.0,0.0,99,0.00,CLR,,0.00,WeatherDisplay:10.37,2013-04-08 10:30:00,
2013-04-08 06:35:00,54.0,53.7,30.16,SSW,199,0.0,0.0,99,0.00,CLR,,0.00,WeatherDisplay:10.37,2013-04-08 10:35:00,
2013-04-08 06:40:00,54.0,54.0,30.16,SSW,199,0.0,0.0,100,0.00,CLR,,0.00,WeatherDisplay:10.37,2013-04-08 10:40:00,
2013-04-08 06:45:00,55.1,55.1,30.16,SSW,199,0.0,0.0,100,0.00,CLR,,0.00,WeatherDisplay:10.37,2013-04-08 10:45:00,
2013-04-08 06:50:00,56.3,56.3,30.16,SSW,199,0.0,0.0,100,0.00,CLR,,0.00,WeatherDisplay:10.37,2013-04-08 10:50:00,
2013-04-08 06:55:00,56.1,56.1,30.16,SSW,199,0.0,0.0,100,0.00,CLR,,0.00,WeatherDisplay:10.37,2013-04-08 10:55:00,
2013-04-08 07:00:00,55.7,55.4,30.17,SSW,199,0.0,0.0,99,0.00,CLR,,0.00,WeatherDisplay:10.37,2013-04-08 11:00:00,
2013-04-08 07:05:00,55.5,55.2,30.17,SSW,199,0.0,0.0,99,0.00,CLR,,0.00,WeatherDisplay:10.37,2013-04-08 11:05:00,
2013-04-08 07:10:00,55.1,54.8,30.17,SSW,199,0.0,0.0,99,0.00,CLR,,0.00,WeatherDisplay:10.37,2013-04-08 11:10:00,
2013-04-08 07:15:00,54.9,54.6,30.17,SSW,199,0.0,0.0,99,0.00,CLR,,0.00,WeatherDisplay:10.37,2013-04-08 11:15:00,
2013-04-08 07:20:00,54.7,54.4,30.17,SSW,199,0.0,0.0,99,0.00,CLR,,0.00,WeatherDisplay:10.37,2013-04-08 11:20:00,
2013-04-08 07:25:00,54.8,54.5,30.17,SSW,199,0.0,0.0,99,0.00,CLR,,0.00,WeatherDisplay:10.37,2013-04-08 11:25:00,
2013-04-08 07:30:00,54.6,54.6,30.17,SSW,199,0.0,0.0,100,0.00,CLR,,0.00,WeatherDisplay:10.37,2013-04-08 11:30:00,
2013-04-08 07:35:00,54.7,54.7,30.17,SSW,199,0.0,0.0,100,0.00,CLR,,0.00,WeatherDisplay:10.37,2013-04-08 11:35:00,
2013-04-08 07:40:00,54.8,54.8,30.17,SSW,199,0.0,0.0,100,0.00,CLR,,0.00,WeatherDisplay:10.37,2013-04-08 11:40:00,
2013-04-08 07:45:00,54.8,54.8,30.18,SSW,199,0.0,0.0,100,0.00,CLR,,0.00,WeatherDisplay:10.37,2013-04-08 11:45:00,
2013-04-08 07:50:00,54.8,54.8,30.18,SSW,199,0.0,0.0,100,0.00,CLR,,0.00,WeatherDisplay:10.37,2013-04-08 11:50:00,
2013-04-08 07:55:00,54.7,54.7,30.18,SSW,199,0.0,0.0,100,0.00,CLR,,0.00,WeatherDisplay:10.37,2013-04-08 11:55:00,
2013-04-08 08:00:00,54.6,54.6,30.19,SSW,199,0.0,0.0,100,0.00,CLR,,0.00,WeatherDisplay:10.37,2013-04-08 12:00:00,
2013-04-08 08:05:00,55.1,55.1,30.19,SSW,199,0.0,0.0,100,0.00,CLR,,0.00,WeatherDisplay:10.37,2013-04-08 12:05:00,
2013-04-08 08:10:00,56.0,56.0,30.19,SSW,199,0.0,0.0,100,0.00,CLR,,0.00,WeatherDisplay:10.37,2013-04-08 12:10:00,
2013-04-08 08:15:00,56.7,56.7,30.19,SSW,199,0.0,0.0,100,0.00,CLR,,0.00,WeatherDisplay:10.37,2013-04-08 12:15:00,
2013-04-08 08:20:00,57.3,57.3,30.19,SSW,199,0.0,0.0,100,0.00,CLR,,0.00,WeatherDisplay:10.37,2013-04-08 12:20:00,
2013-04-08 08:25:00,58.0,58.0,30.19,SSW,199,0.0,0.0,100,0.00,CLR,,0.00,WeatherDisplay:10.37,2013-04-08 12:25:00,
2013-04-08 08:30:00,58.8,58.8,30.19,SSW,199,0.0,0.0,100,0.00,CLR,,0.00,WeatherDisplay:10.37,2013-04-08 12:30:00,
2013-04-08 08:35:00,59.5,59.2,30.19,SSW,199,0.0,0.0,99,0.00,CLR,,0.00,WeatherDisplay:10.37,2013-04-08 12:35:00,
2013-04-08 08:40:00,59.9,59.3,30.19,SSW,199,0.0,0.0,98,0.00,CLR,,0.00,WeatherDisplay:10.37,2013-04-08 12:40:00,
2013-04-08 08:45:00,59.7,58.6,30.19,SSW,199,0.0,0.0,96,0.00,CLR,,0.00,WeatherDisplay:10.37,2013-04-08 12:45:00,
2013-04-08 08:50:00,59.9,58.5,30.19,SSW,199,0.0,0.0,95,0.00,CLR,,0.00,WeatherDisplay:10.37,2013-04-08 12:50:00,
2013-04-08 08:55:00,60.2,58.2,30.19,SSW,199,0.0,0.0,93,0.00,CLR,,0.00,WeatherDisplay:10.37,2013-04-08 12:55:00,
2013-04-08 09:01:00,60.5,57.2,30.18,SSW,199,0.0,0.0,89,0.00,CLR,,0.00,WeatherDisplay:10.37,2013-04-08 13:01:00,
2013-04-08 09:06:00,60.7,56.5,30.18,SSW,199,0.0,0.0,86,0.00,CLR,,0.00,WeatherDisplay:10.37,2013-04-08 13:06:00,
2013-04-08 09:11:00,61.2,57.0,30.18,SSW,199,0.0,0.0,86,0.00,CLR,,0.00,WeatherDisplay:10.37,2013-04-08 13:11:00,
2013-04-08 09:16:00,61.5,56.9,30.18,SSW,199,0.0,0.0,85,0.00,CLR,,0.00,WeatherDisplay:10.37,2013-04-08 13:16:00,
2013-04-08 09:21:00,62.0,57.1,30.18,ESE,112,0.0,0.0,84,0.00,CLR,,0.00,WeatherDisplay:10.37,2013-04-08 13:21:00,
2013-04-08 09:26:00,62.3,56.4,30.18,ESE,112,0.0,0.0,81,0.00,CLR,,0.00,WeatherDisplay:10.37,2013-04-08 13:26:00,
2013-04-08 09:31:00,62.5,56.6,30.18,SE,137,0.0,0.0,81,0.00,CLR,,0.00,WeatherDisplay:10.37,2013-04-08 13:31:00,
2013-04-08 09:36:00,62.8,55.8,30.18,SSW,212,3.5,3.5,78,0.00,CLR,,0.00,WeatherDisplay:10.37,2013-04-08 13:36:00,
2013-04-08 09:41:00,63.2,56.2,30.18,ESE,119,2.3,2.3,78,0.00,CLR,,0.00,WeatherDisplay:10.37,2013-04-08 13:41:00,
2013-04-08 09:46:00,63.6,55.9,30.18,SSW,212,0.0,0.0,76,0.00,CLR,,0.00,WeatherDisplay:10.37,2013-04-08 13:46:00,
2013-04-08 09:51:00,63.7,55.3,30.18,SSE,150,0.0,0.0,74,0.00,CLR,,0.00,WeatherDisplay:10.37,2013-04-08 13:51:00,
2013-04-08 09:57:00,63.6,55.5,30.18,SSE,150,0.0,0.0,75,0.00,CLR,,0.00,WeatherDisplay:10.37,2013-04-08 13:57:00,
2013-04-08 10:02:00,63.4,55.3,30.18,SSE,150,0.0,0.0,75,0.00,CLR,,0.00,WeatherDisplay:10.37,2013-04-08 14:02:00,
2013-04-08 10:07:00,63.5,55.8,30.18,South,171,1.9,1.9,76,0.00,CLR,,0.00,WeatherDisplay:10.37,2013-04-08 14:07:00,
2013-04-08 10:12:00,63.9,55.8,30.18,SW,216,2.8,2.8,75,0.00,CLR,,0.00,WeatherDisplay:10.37,2013-04-08 14:12:00,
2013-04-08 10:17:00,64.5,56.0,30.18,ESE,117,2.3,2.5,74,0.00,CLR,,0.00,WeatherDisplay:10.37,2013-04-08 14:17:00,
2013-04-08 10:22:00,65.2,55.9,30.18,SW,219,4.6,4.6,72,0.00,CLR,,0.00,WeatherDisplay:10.37,2013-04-08 14:22:00,
2013-04-08 10:27:00,65.7,55.6,30.18,SE,144,3.5,3.5,70,0.00,CLR,,0.00,WeatherDisplay:10.37,2013-04-08 14:27:00,
2013-04-08 10:32:00,65.8,54.9,30.18,South,191,1.2,0.0,68,0.00,CLR,,0.00,WeatherDisplay:10.37,2013-04-08 14:32:00,
2013-04-08 10:38:00,65.9,55.0,30.18,SSW,195,4.6,4.6,68,0.00,CLR,,0.00,WeatherDisplay:10.37,2013-04-08 14:38:00,
2013-04-08 10:43:00,66.2,55.3,30.18,SW,217,2.3,0.0,68,0.00,CLR,,0.00,WeatherDisplay:10.37,2013-04-08 14:43:00,
2013-04-08 10:48:00,66.4,55.1,30.18,SE,136,2.4,2.4,67,0.00,CLR,,0.00,WeatherDisplay:10.37,2013-04-08 14:48:00,
2013-04-08 10:53:00,66.7,55.4,30.18,ESE,110,3.5,3.5,67,0.00,CLR,,0.00,WeatherDisplay:10.37,2013-04-08 14:53:00,
2013-04-08 10:58:00,67.1,55.4,30.18,SSE,160,6.9,6.9,66,0.00,CLR,,0.00,WeatherDisplay:10.37,2013-04-08 14:58:00,
2013-04-08 11:03:00,67.8,57.7,30.18,SSE,167,2.2,2.2,70,0.00,CLR,,0.00,WeatherDisplay:10.37,2013-04-08 15:03:00,
2013-04-08 11:08:00,68.3,57.3,30.18,ESE,117,4.6,4.6,68,0.00,CLR,,0.00,WeatherDisplay:10.37,2013-04-08 15:08:00,
2013-04-08 11:13:00,68.7,56.0,30.18,SSE,151,1.6,1.6,64,0.00,CLR,,0.00,WeatherDisplay:10.37,2013-04-08 15:13:00,
2013-04-08 11:18:00,68.9,55.8,30.18,SE,124,3.5,3.5,63,0.00,CLR,,0.00,WeatherDisplay:10.37,2013-04-08 15:18:00,
2013-04-08 11:23:00,69.1,55.5,30.18,SSE,162,2.1,2.1,62,0.00,CLR,,0.00,WeatherDisplay:10.37,2013-04-08 15:23:00,
2013-04-08 11:28:00,69.3,55.7,30.18,SE,141,2.3,2.3,62,0.00,CLR,,0.00,WeatherDisplay:10.37,2013-04-08 15:28:00,
2013-04-08 11:33:00,69.4,55.8,30.18,SE,124,4.6,4.6,62,0.00,CLR,,0.00,WeatherDisplay:10.37,2013-04-08 15:33:00,
2013-04-08 11:38:00,69.5,55.9,30.18,SSW,198,6.0,6.0,62,0.00,CLR,,0.00,WeatherDisplay:10.37,2013-04-08 15:38:00,
2013-04-08 11:43:00,70.2,56.1,30.18,SSE,154,3.5,3.5,61,0.00,CLR,,0.00,WeatherDisplay:10.37,2013-04-08 15:43:00,
2013-04-08 11:48:00,70.6,56.0,30.18,SSE,155,5.8,5.8,60,0.00,CLR,,0.00,WeatherDisplay:10.37,2013-04-08 15:48:00,
2013-04-08 11:53:00,70.9,55.9,30.18,SSW,195,6.3,6.3,59,0.00,CLR,,0.00,WeatherDisplay:10.37,2013-04-08 15:53:00,
2013-04-08 11:58:00,71.5,55.9,30.17,SW,220,6.9,6.9,58,0.00,CLR,,0.00,WeatherDisplay:10.37,2013-04-08 15:58:00,
2013-04-08 12:03:00,72.2,56.6,30.17,South,174,9.2,9.2,58,0.00,CLR,,0.00,WeatherDisplay:10.37,2013-04-08 16:03:00,
2013-04-08 12:08:00,72.8,56.2,30.17,SE,127,5.8,5.8,56,0.00,CLR,,0.00,WeatherDisplay:10.37,2013-04-08 16:08:00,
2013-04-08 12:13:00,73.2,56.6,30.17,SSE,151,3.5,3.5,56,0.00,CLR,,0.00,WeatherDisplay:10.37,2013-04-08 16:13:00,
2013-04-08 12:18:00,73.9,56.7,30.17,South,184,5.2,5.2,55,0.00,CLR,,0.00,WeatherDisplay:10.37,2013-04-08 16:18:00,
2013-04-08 12:23:00,74.7,56.9,30.17,SE,130,2.3,2.3,54,0.00,CLR,,0.00,WeatherDisplay:10.37,2013-04-08 16:23:00,
2013-04-08 12:28:00,75.3,56.5,30.17,ESE,121,5.8,5.8,52,0.00,CLR,,0.00,WeatherDisplay:10.37,2013-04-08 16:28:00,
2013-04-08 12:33:00,76.0,57.1,30.17,South,178,5.8,5.8,52,0.00,CLR,,0.00,WeatherDisplay:10.37,2013-04-08 16:33:00,
2013-04-08 12:38:00,76.6,56.6,30.17,SSE,162,8.1,8.1,50,0.00,CLR,,0.00,WeatherDisplay:10.37,2013-04-08 16:38:00,
2013-04-08 12:43:00,77.1,56.5,30.16,South,171,3.5,3.5,49,0.00,CLR,,0.00,WeatherDisplay:10.37,2013-04-08 16:43:00,
2013-04-08 12:49:00,77.8,57.1,30.16,SSW,199,8.1,8.1,49,0.00,CLR,,0.00,WeatherDisplay:10.37,2013-04-08 16:49:00,
2013-04-08 12:54:00,78.3,56.4,30.16,South,186,6.2,6.2,47,0.00,CLR,,0.00,WeatherDisplay:10.37,2013-04-08 16:54:00,
2013-04-08 12:59:00,78.0,56.7,30.16,SSE,157,4.6,4.6,48,0.00,CLR,,0.00,WeatherDisplay:10.37,2013-04-08 16:59:00,
2013-04-08 13:04:00,77.3,56.1,30.15,SE,141,1.2,1.2,48,0.00,CLR,,0.00,WeatherDisplay:10.37,2013-04-08 17:04:00,
2013-04-08 13:09:00,77.3,56.1,30.15,SSW,209,4.6,4.6,48,0.00,CLR,,0.00,WeatherDisplay:10.37,2013-04-08 17:09:00,
2013-04-08 13:14:00,78.0,56.1,30.14,South,175,5.8,5.8,47,0.00,CLR,,0.00,WeatherDisplay:10.37,2013-04-08 17:14:00,
2013-04-08 13:19:00,78.9,56.4,30.14,South,182,10.4,10.4,46,0.00,CLR,,0.00,WeatherDisplay:10.37,2013-04-08 17:19:00,
2013-04-08 13:24:00,78.9,56.4,30.14,South,182,6.9,6.9,46,0.00,CLR,,0.00,WeatherDisplay:10.37,2013-04-08 17:24:00,
2013-04-08 13:29:00,78.2,55.7,30.14,SSE,147,1.4,1.4,46,0.00,CLR,,0.00,WeatherDisplay:10.37,2013-04-08 17:29:00,
2013-04-08 13:35:00,77.9,56.0,30.14,South,182,6.0,6.0,47,0.00,CLR,,0.00,WeatherDisplay:10.37,2013-04-08 17:35:00,
2013-04-08 13:40:00,77.5,55.1,30.14,South,181,6.9,6.9,46,0.00,CLR,,0.00,WeatherDisplay:10.37,2013-04-08 17:40:00,
2013-04-08 13:45:00,78.1,55.6,30.13,SW,229,8.1,8.1,46,0.00,CLR,,0.00,WeatherDisplay:10.37,2013-04-08 17:45:00,
2013-04-08 13:50:00,79.2,55.4,30.13,SW,232,5.8,5.8,44,0.00,CLR,,0.00,WeatherDisplay:10.37,2013-04-08 17:50:00,
2013-04-08 13:55:00,79.2,55.4,30.13,SE,134,8.1,8.1,44,0.00,CLR,,0.00,WeatherDisplay:10.37,2013-04-08 17:55:00,
2013-04-08 14:00:00,79.3,55.5,30.13,SE,144,6.9,6.9,44,0.00,CLR,,0.00,WeatherDisplay:10.37,2013-04-08 18:00:00,
2013-04-08 14:05:00,79.4,55.0,30.13,SSE,165,4.6,4.6,43,0.00,CLR,,0.00,WeatherDisplay:10.37,2013-04-08 18:05:00,
2013-04-08 14:10:00,79.4,55.0,30.12,SE,144,4.6,4.6,43,0.00,CLR,,0.00,WeatherDisplay:10.37,2013-04-08 18:10:00,
2013-04-08 14:15:00,79.9,54.1,30.12,SSE,150,8.1,8.1,41,0.00,CLR,,0.00,WeatherDisplay:10.37,2013-04-08 18:15:00,
2013-04-08 14:20:00,79.9,54.1,30.12,WSW,248,4.6,4.6,41,0.00,CLR,,0.00,WeatherDisplay:10.37,2013-04-08 18:20:00,
2013-04-08 14:25:00,79.3,53.6,30.12,West,263,6.2,6.2,41,0.00,CLR,,0.00,WeatherDisplay:10.37,2013-04-08 18:25:00,
2013-04-08 14:30:00,78.8,53.1,30.12,SE,128,2.3,2.3,41,0.00,CLR,,0.00,WeatherDisplay:10.37,2013-04-08 18:30:00,
2013-04-08 14:35:00,78.0,53.0,30.12,SSW,202,5.8,5.8,42,0.00,CLR,,0.00,WeatherDisplay:10.37,2013-04-08 18:35:00,
2013-04-08 14:40:00,78.0,53.0,30.11,WNW,288,8.1,8.1,42,0.00,CLR,,0.00,WeatherDisplay:10.37,2013-04-08 18:40:00,
2013-04-08 14:45:00,77.7,52.8,30.11,NE,56,6.9,6.9,42,0.00,CLR,,0.00,WeatherDisplay:10.37,2013-04-08 18:45:00,
2013-04-08 14:51:00,77.9,53.0,30.11,SSW,212,6.9,6.9,42,0.00,CLR,,0.00,WeatherDisplay:10.37,2013-04-08 18:51:00,
2013-04-08 14:56:00,78.9,52.5,30.11,SE,140,8.1,8.1,40,0.00,CLR,,0.00,WeatherDisplay:10.37,2013-04-08 18:56:00,
2013-04-08 15:01:00,79.4,52.3,30.11,South,186,9.2,9.2,39,0.00,CLR,,0.00,WeatherDisplay:10.37,2013-04-08 19:01:00,
2013-04-08 15:06:00,79.9,52.0,30.11,SW,222,5.5,5.5,38,0.00,CLR,,0.00,WeatherDisplay:10.37,2013-04-08 19:06:00,
2013-04-08 15:12:00,79.8,52.6,30.10,SE,131,5.8,5.8,39,0.00,CLR,,0.00,WeatherDisplay:10.37,2013-04-08 19:12:00,
2013-04-08 15:17:00,80.0,52.8,30.10,SE,131,9.2,9.2,39,0.00,CLR,,0.00,WeatherDisplay:10.37,2013-04-08 19:17:00,
2013-04-08 15:22:00,80.3,52.4,30.10,SSW,202,9.2,9.2,38,0.00,CLR,,0.00,WeatherDisplay:10.37,2013-04-08 19:22:00,
2013-04-08 15:27:00,80.3,52.4,30.10,WSW,248,10.4,10.4,38,0.00,CLR,,0.00,WeatherDisplay:10.37,2013-04-08 19:27:00,
2013-04-08 15:32:00,80.3,52.4,30.09,West,260,5.8,5.8,38,0.00,CLR,,0.00,WeatherDisplay:10.37,2013-04-08 19:32:00,
2013-04-08 15:37:00,79.5,52.4,30.09,SSW,199,5.8,5.8,39,0.00,CLR,,0.00,WeatherDisplay:10.37,2013-04-08 19:37:00,
2013-04-08 15:43:00,79.1,52.0,30.09,ESE,119,4.6,4.6,39,0.00,CLR,,0.00,WeatherDisplay:10.37,2013-04-08 19:43:00,
2013-04-08 15:48:00,79.2,52.1,30.09,SSE,152,8.1,8.1,39,0.00,CLR,,0.00,WeatherDisplay:10.37,2013-04-08 19:48:00,
2013-04-08 15:53:00,78.9,52.5,30.09,SSE,152,4.6,4.6,40,0.00,CLR,,0.00,WeatherDisplay:10.37,2013-04-08 19:53:00,
2013-04-08 15:58:00,78.4,52.1,30.09,SE,145,6.9,6.9,40,0.00,CLR,,0.00,WeatherDisplay:10.37,2013-04-08 19:58:00,
2013-04-08 16:03:00,78.4,52.1,30.09,SE,137,6.9,6.9,40,0.00,CLR,,0.00,WeatherDisplay:10.37,2013-04-08 20:03:00,
2013-04-08 16:08:00,78.7,52.3,30.08,South,176,5.8,5.8,40,0.00,CLR,,0.00,WeatherDisplay:10.37,2013-04-08 20:08:00,
2013-04-08 16:13:00,78.8,52.4,30.09,SSE,164,2.3,2.3,40,0.00,CLR,,0.00,WeatherDisplay:10.37,2013-04-08 20:13:00,
2013-04-08 16:18:00,79.2,52.8,30.08,South,174,5.8,5.8,40,0.00,CLR,,0.00,WeatherDisplay:10.37,2013-04-08 20:18:00,
2013-04-08 16:23:00,79.5,52.4,30.08,South,171,4.2,4.2,39,0.00,CLR,,0.00,WeatherDisplay:10.37,2013-04-08 20:23:00,
2013-04-08 16:28:00,79.4,52.3,30.08,SSE,158,8.1,8.1,39,0.00,CLR,,0.00,WeatherDisplay:10.37,2013-04-08 20:28:00,
2013-04-08 16:33:00,79.1,52.0,30.08,WSW,258,4.6,4.6,39,0.00,CLR,,0.00,WeatherDisplay:10.37,2013-04-08 20:33:00,
2013-04-08 16:38:00,78.9,51.8,30.08,SW,215,4.7,4.7,39,0.00,CLR,,0.00,WeatherDisplay:10.37,2013-04-08 20:38:00,
2013-04-08 16:43:00,79.1,52.7,30.08,SW,215,3.6,3.6,40,0.00,CLR,,0.00,WeatherDisplay:10.37,2013-04-08 20:43:00,
2013-04-08 16:48:00,79.2,52.8,30.08,SSE,148,6.9,6.9,40,0.00,CLR,,0.00,WeatherDisplay:10.37,2013-04-08 20:48:00,
2013-04-08 16:53:00,78.9,52.5,30.08,SE,138,5.8,5.8,40,0.00,CLR,,0.00,WeatherDisplay:10.37,2013-04-08 20:53:00,
2013-04-08 16:58:00,78.5,52.2,30.08,SE,128,4.6,4.6,40,0.00,CLR,,0.00,WeatherDisplay:10.37,2013-04-08 20:58:00,
2013-04-08 17:03:00,78.2,51.9,30.08,SW,216,6.5,6.5,40,0.00,CLR,,0.00,WeatherDisplay:10.37,2013-04-08 21:03:00,
2013-04-08 17:08:00,78.0,52.4,30.08,SSE,155,4.6,4.6,41,0.00,CLR,,0.00,WeatherDisplay:10.37,2013-04-08 21:08:00,
2013-04-08 17:13:00,78.0,52.4,30.07,South,171,4.6,4.6,41,0.00,CLR,,0.00,WeatherDisplay:10.37,2013-04-08 21:13:00,
2013-04-08 17:18:00,78.0,52.4,30.07,SSW,208,3.5,3.5,41,0.00,CLR,,0.00,WeatherDisplay:10.37,2013-04-08 21:18:00,
2013-04-08 17:23:00,77.8,52.2,30.07,SSW,199,6.9,6.9,41,0.00,CLR,,0.00,WeatherDisplay:10.37,2013-04-08 21:23:00,
2013-04-08 17:28:00,77.8,51.5,30.07,SE,137,0.0,0.0,40,0.00,CLR,,0.00,WeatherDisplay:10.37,2013-04-08 21:28:00,
2013-04-08 17:33:00,77.7,52.1,30.07,SSW,198,5.8,5.8,41,0.00,CLR,,0.00,WeatherDisplay:10.37,2013-04-08 21:33:00,
2013-04-08 17:38:00,77.3,51.8,30.07,ESE,107,2.3,2.3,41,0.00,CLR,,0.00,WeatherDisplay:10.37,2013-04-08 21:38:00,
2013-04-08 17:43:00,77.1,52.2,30.07,East,88,2.3,2.3,42,0.00,CLR,,0.00,WeatherDisplay:10.37,2013-04-08 21:43:00,
2013-04-08 17:48:00,77.0,51.5,30.07,South,174,4.6,4.6,41,0.00,CLR,,0.00,WeatherDisplay:10.37,2013-04-08 21:48:00,
2013-04-08 17:53:00,76.8,51.3,30.07,SSE,165,4.6,4.6,41,0.00,CLR,,0.00,WeatherDisplay:10.37,2013-04-08 21:53:00,
2013-04-08 17:59:00,77.0,51.5,30.07,South,186,3.5,3.5,41,0.00,CLR,,0.00,WeatherDisplay:10.37,2013-04-08 21:59:00,
2013-04-08 18:04:00,77.0,51.5,30.07,SW,219,1.7,1.7,41,0.00,CLR,,0.00,WeatherDisplay:10.37,2013-04-08 22:04:00,
2013-04-08 18:09:00,77.0,51.5,30.07,South,176,4.2,4.2,41,0.00,CLR,,0.00,WeatherDisplay:10.37,2013-04-08 22:09:00,
2013-04-08 18:14:00,76.9,51.4,30.07,SSW,199,2.3,0.0,41,0.00,CLR,,0.00,WeatherDisplay:10.37,2013-04-08 22:14:00,
2013-04-08 18:20:00,76.8,51.3,30.08,South,171,5.8,5.8,41,0.00,CLR,,0.00,WeatherDisplay:10.37,2013-04-08 22:20:00,
2013-04-08 18:24:00,76.4,51.0,30.08,SSE,148,4.6,4.6,41,0.00,CLR,,0.00,WeatherDisplay:10.37,2013-04-08 22:24:00,
2013-04-08 18:30:00,76.3,50.9,30.08,SE,127,1.2,0.0,41,0.00,CLR,,0.00,WeatherDisplay:10.37,2013-04-08 22:30:00,
2013-04-08 18:35:00,76.1,51.3,30.08,SSE,152,3.5,3.5,42,0.00,CLR,,0.00,WeatherDisplay:10.37,2013-04-08 22:35:00,
2013-04-08 18:40:00,75.9,51.2,30.08,SSE,162,1.2,0.0,42,0.00,CLR,,0.00,WeatherDisplay:10.37,2013-04-08 22:40:00,
2013-04-08 18:45:00,75.7,51.0,30.08,SE,145,4.6,4.6,42,0.00,CLR,,0.00,WeatherDisplay:10.37,2013-04-08 22:45:00,
2013-04-08 18:50:00,75.7,51.0,30.08,SE,145,0.0,0.0,42,0.00,CLR,,0.00,WeatherDisplay:10.37,2013-04-08 22:50:00,
2013-04-08 18:55:00,75.7,51.0,30.08,SSW,213,3.5,3.5,42,0.00,CLR,,0.00,WeatherDisplay:10.37,2013-04-08 22:55:00,
2013-04-08 19:00:00,75.7,51.0,30.08,SE,133,1.2,0.0,42,0.00,CLR,,0.00,WeatherDisplay:10.37,2013-04-08 23:00:00,
2013-04-08 19:06:00,75.7,52.8,30.08,SE,133,0.0,0.0,45,0.00,CLR,,0.00,WeatherDisplay:10.37,2013-04-08 23:06:00,
2013-04-08 19:11:00,76.4,52.9,30.08,SE,133,0.0,0.0,44,0.00,CLR,,0.00,WeatherDisplay:10.37,2013-04-08 23:11:00,
2013-04-08 19:16:00,76.9,52.1,30.08,South,174,4.6,4.6,42,0.00,CLR,,0.00,WeatherDisplay:10.37,2013-04-08 23:16:00,
2013-04-08 19:21:00,76.5,51.0,30.08,SW,219,3.2,3.2,41,0.00,CLR,,0.00,WeatherDisplay:10.37,2013-04-08 23:21:00,
2013-04-08 19:26:00,76.1,50.7,30.08,ESE,121,0.0,0.4,41,0.00,CLR,,0.00,WeatherDisplay:10.37,2013-04-08 23:26:00,
2013-04-08 19:31:00,75.4,50.7,30.08,SW,223,0.0,0.0,42,0.00,CLR,,0.00,WeatherDisplay:10.37,2013-04-08 23:31:00,
2013-04-08 19:36:00,75.1,50.4,30.08,SE,145,1.9,1.9,42,0.00,CLR,,0.00,WeatherDisplay:10.37,2013-04-08 23:36:00,
2013-04-08 19:41:00,74.7,50.1,30.08,SSE,167,0.0,0.0,42,0.00,CLR,,0.00,WeatherDisplay:10.37,2013-04-08 23:41:00,
2013-04-08 19:46:00,74.3,50.4,30.08,SSE,150,0.0,0.0,43,0.00,CLR,,0.00,WeatherDisplay:10.37,2013-04-08 23:46:00,
2013-04-08 19:51:00,74.0,50.1,30.08,SSE,150,0.0,0.0,43,0.00,CLR,,0.00,WeatherDisplay:10.37,2013-04-08 23:51:00,
2013-04-08 19:56:00,73.7,50.4,30.08,South,184,0.0,0.0,44,0.00,CLR,,0.00,WeatherDisplay:10.37,2013-04-08 23:56:00,
2013-04-08 20:01:00,73.3,50.1,30.08,South,184,0.0,0.0,44,0.00,CLR,,0.00,WeatherDisplay:10.37,2013-04-09 00:01:00,
2013-04-08 20:06:00,73.0,50.4,30.08,South,184,0.0,0.0,45,0.00,CLR,,0.00,WeatherDisplay:10.37,2013-04-09 00:06:00,
2013-04-08 20:11:00,72.6,50.6,30.08,South,184,0.0,0.0,46,0.00,CLR,,0.00,WeatherDisplay:10.37,2013-04-09 00:11:00,
2013-04-08 20:17:00,72.1,50.8,30.09,South,184,0.0,0.0,47,0.00,CLR,,0.00,WeatherDisplay:10.37,2013-04-09 00:17:00,
2013-04-08 20:22:00,71.5,50.8,30.09,South,184,0.0,0.0,48,0.00,CLR,,0.00,WeatherDisplay:10.37,2013-04-09 00:22:00,
2013-04-08 20:27:00,71.0,50.9,30.09,South,184,0.0,0.0,49,0.00,CLR,,0.00,WeatherDisplay:10.37,2013-04-09 00:27:00,
2013-04-08 20:32:00,70.6,50.5,30.09,South,184,0.0,0.0,49,0.00,CLR,,0.00,WeatherDisplay:10.37,2013-04-09 00:32:00,
2013-04-08 20:37:00,70.2,51.2,30.09,South,184,0.0,0.0,51,0.00,CLR,,0.00,WeatherDisplay:10.37,2013-04-09 00:37:00,
2013-04-08 20:42:00,69.7,50.8,30.10,South,184,0.0,0.0,51,0.00,CLR,,0.00,WeatherDisplay:10.37,2013-04-09 00:42:00,
2013-04-08 20:47:00,69.4,51.0,30.10,South,184,0.0,0.0,52,0.00,CLR,,0.00,WeatherDisplay:10.37,2013-04-09 00:47:00,
2013-04-08 20:52:00,69.1,51.2,30.10,South,184,0.0,0.0,53,0.00,CLR,,0.00,WeatherDisplay:10.37,2013-04-09 00:52:00,
2013-04-08 20:57:00,68.5,51.2,30.10,South,184,0.0,0.0,54,0.00,CLR,,0.00,WeatherDisplay:10.37,2013-04-09 00:57:00,
2013-04-08 21:02:00,68.3,51.5,30.10,South,184,0.0,0.0,55,0.00,CLR,,0.00,WeatherDisplay:10.37,2013-04-09 01:02:00,
2013-04-08 21:07:00,68.0,51.2,30.11,South,184,0.0,0.0,55,0.00,CLR,,0.00,WeatherDisplay:10.37,2013-04-09 01:07:00,
2013-04-08 21:12:00,67.7,51.4,30.11,South,184,0.0,0.0,56,0.00,CLR,,0.00,WeatherDisplay:10.37,2013-04-09 01:12:00,
2013-04-08 21:18:00,68.1,54.6,30.11,South,184,0.0,0.0,62,0.00,CLR,,0.00,WeatherDisplay:10.37,2013-04-09 01:18:00,
2013-04-08 21:23:00,68.2,52.4,30.11,South,184,0.0,0.0,57,0.00,CLR,,0.00,WeatherDisplay:10.37,2013-04-09 01:23:00,
2013-04-08 21:28:00,67.8,52.0,30.11,South,184,0.0,0.0,57,0.00,CLR,,0.00,WeatherDisplay:10.37,2013-04-09 01:28:00,
2013-04-08 21:33:00,67.1,51.8,30.11,South,184,0.0,0.0,58,0.00,CLR,,0.00,WeatherDisplay:10.37,2013-04-09 01:33:00,
2013-04-08 21:38:00,66.6,52.3,30.12,South,184,0.0,0.0,60,0.00,CLR,,0.00,WeatherDisplay:10.37,2013-04-09 01:38:00,
2013-04-08 21:43:00,66.1,51.8,30.12,South,184,0.0,0.0,60,0.00,CLR,,0.00,WeatherDisplay:10.37,2013-04-09 01:43:00,
2013-04-08 21:48:00,65.7,51.9,30.12,South,184,0.0,0.0,61,0.00,CLR,,0.00,WeatherDisplay:10.37,2013-04-09 01:48:00,
2013-04-08 21:53:00,65.5,52.1,30.12,South,184,0.0,0.0,62,0.00,CLR,,0.00,WeatherDisplay:10.37,2013-04-09 01:53:00,
2013-04-08 21:58:00,65.2,51.8,30.12,South,184,0.0,0.0,62,0.00,CLR,,0.00,WeatherDisplay:10.37,2013-04-09 01:58:00,
2013-04-08 22:03:00,65.0,52.1,30.12,South,184,0.0,0.0,63,0.00,CLR,,0.00,WeatherDisplay:10.37,2013-04-09 02:03:00,
2013-04-08 22:08:00,64.6,52.1,30.12,South,184,0.0,0.0,64,0.00,CLR,,0.00,WeatherDisplay:10.37,2013-04-09 02:08:00,
2013-04-08 22:13:00,64.3,51.9,30.13,South,184,0.0,0.0,64,0.00,CLR,,0.00,WeatherDisplay:10.37,2013-04-09 02:13:00,
2013-04-08 22:18:00,64.1,52.1,30.13,South,184,0.0,0.0,65,0.00,CLR,,0.00,WeatherDisplay:10.37,2013-04-09 02:18:00,
2013-04-08 22:23:00,63.8,52.2,30.12,South,184,0.0,0.0,66,0.00,CLR,,0.00,WeatherDisplay:10.37,2013-04-09 02:23:00,
2013-04-08 22:28:00,63.5,52.3,30.12,South,184,0.0,0.0,67,0.00,CLR,,0.00,WeatherDisplay:10.37,2013-04-09 02:28:00,
2013-04-08 22:34:00,63.2,52.5,30.12,South,184,0.0,0.0,68,0.00,CLR,,0.00,WeatherDisplay:10.37,2013-04-09 02:34:00,
2013-04-08 22:39:00,63.0,52.3,30.12,South,184,0.0,0.0,68,0.00,CLR,,0.00,WeatherDisplay:10.37,2013-04-09 02:39:00,
2013-04-08 22:44:00,62.8,52.9,30.12,South,184,0.0,0.0,70,0.00,CLR,,0.00,WeatherDisplay:10.37,2013-04-09 02:44:00,
2013-04-08 22:49:00,62.6,52.7,30.12,South,184,0.0,0.0,70,0.00,CLR,,0.00,WeatherDisplay:10.37,2013-04-09 02:49:00,
2013-04-08 22:54:00,62.3,52.4,30.12,South,184,0.0,0.0,70,0.00,CLR,,0.00,WeatherDisplay:10.37,2013-04-09 02:54:00,
2013-04-08 22:59:00,62.2,52.7,30.12,South,184,0.0,0.0,71,0.00,CLR,,0.00,WeatherDisplay:10.37,2013-04-09 02:59:00,
2013-04-08 23:04:00,62.0,52.9,30.13,South,184,0.0,0.0,72,0.00,CLR,,0.00,WeatherDisplay:10.37,2013-04-09 03:04:00,
2013-04-08 23:09:00,61.8,52.7,30.12,South,184,0.0,0.0,72,0.00,CLR,,0.00,WeatherDisplay:10.37,2013-04-09 03:09:00,
2013-04-08 23:14:00,61.6,52.9,30.12,South,184,0.0,0.0,73,0.00,CLR,,0.00,WeatherDisplay:10.37,2013-04-09 03:14:00,
2013-04-08 23:19:00,61.5,53.1,30.12,South,184,0.0,0.0,74,0.00,CLR,,0.00,WeatherDisplay:10.37,2013-04-09 03:19:00,
2013-04-08 23:24:00,61.4,53.0,30.12,South,184,0.0,0.0,74,0.00,CLR,,0.00,WeatherDisplay:10.37,2013-04-09 03:24:00,
2013-04-08 23:29:00,61.4,54.1,30.13,South,184,0.0,0.0,77,0.00,CLR,,0.00,WeatherDisplay:10.37,2013-04-09 03:29:00,
2013-04-08 23:34:00,61.7,56.1,30.13,South,184,0.0,0.0,82,0.00,CLR,,0.00,WeatherDisplay:10.37,2013-04-09 03:34:00,
2013-04-08 23:39:00,62.1,54.4,30.13,South,184,0.0,0.0,76,0.00,CLR,,0.00,WeatherDisplay:10.37,2013-04-09 03:39:00,
2013-04-08 23:45:00,61.8,53.8,30.13,South,184,0.0,0.0,75,0.00,CLR,,0.00,WeatherDisplay:10.37,2013-04-09 03:45:00,
2013-04-08 23:50:00,61.4,53.4,30.13,South,184,0.0,0.0,75,0.00,CLR,,0.00,WeatherDisplay:10.37,2013-04-09 03:50:00,
2013-04-08 23:55:00,60.9,53.3,30.13,South,184,0.0,0.0,76,0.00,CLR,,0.00,WeatherDisplay:10.37,2013-04-09 03:55:00,